sensor_id;sensor_type;location;lat;lon;timestamp;temperature;humidity
5415;DHT22;2730;51.512;7.504;2023-04-24T00:00:55;11.10;99.90
5415;DHT22;2730;51.512;7.504;2023-04-24T00:03:23;11.10;99.90
5415;DHT22;2730;51.512;7.504;2023-04-24T00:05:50;11.10;99.90
5415;DHT22;2730;51.512;7.504;2023-04-24T00:08:17;11.00;99.90
5415;DHT22;2730;51.512;7.504;2023-04-24T00:10:44;10.90;99.90
5415;DHT22;2730;51.512;7.504;2023-04-24T00:13:11;10.80;99.90
5415;DHT22;2730;51.512;7.504;2023-04-24T00:15:38;10.80;99.90
5415;DHT22;2730;51.512;7.504;2023-04-24T00:18:06;10.80;99.90
5415;DHT22;2730;51.512;7.504;2023-04-24T00:20:33;10.80;99.90
5415;DHT22;2730;51.512;7.504;2023-04-24T00:23:00;10.90;99.90
5415;DHT22;2730;51.512;7.504;2023-04-24T00:25:27;11.00;99.90
5415;DHT22;2730;51.512;7.504;2023-04-24T00:27:54;11.00;99.90
5415;DHT22;2730;51.512;7.504;2023-04-24T00:30:21;11.10;99.90
5415;DHT22;2730;51.512;7.504;2023-04-24T00:32:47;11.10;99.90
5415;DHT22;2730;51.512;7.504;2023-04-24T00:35:16;11.10;99.90
5415;DHT22;2730;51.512;7.504;2023-04-24T00:37:42;11.00;99.90
5415;DHT22;2730;51.512;7.504;2023-04-24T00:40:10;11.00;99.90
5415;DHT22;2730;51.512;7.504;2023-04-24T00:42:37;11.00;99.90
5415;DHT22;2730;51.512;7.504;2023-04-24T00:45:05;10.90;99.90
5415;DHT22;2730;51.512;7.504;2023-04-24T00:47:33;10.90;99.90
5415;DHT22;2730;51.512;7.504;2023-04-24T00:50:01;10.90;99.90
5415;DHT22;2730;51.512;7.504;2023-04-24T00:52:29;10.80;99.90
5415;DHT22;2730;51.512;7.504;2023-04-24T00:54:57;10.80;99.90
5415;DHT22;2730;51.512;7.504;2023-04-24T00:57:24;10.70;99.90
5415;DHT22;2730;51.512;7.504;2023-04-24T00:59:51;10.60;99.90
5415;DHT22;2730;51.512;7.504;2023-04-24T01:02:19;10.60;99.90
5415;DHT22;2730;51.512;7.504;2023-04-24T01:04:48;10.60;99.90
5415;DHT22;2730;51.512;7.504;2023-04-24T01:07:17;10.60;99.90
5415;DHT22;2730;51.512;7.504;2023-04-24T01:09:48;10.50;99.90
5415;DHT22;2730;51.512;7.504;2023-04-24T01:12:17;10.50;99.90
5415;DHT22;2730;51.512;7.504;2023-04-24T01:14:44;10.50;99.90
5415;DHT22;2730;51.512;7.504;2023-04-24T01:17:11;10.50;99.90
5415;DHT22;2730;51.512;7.504;2023-04-24T01:19:38;10.40;99.90
5415;DHT22;2730;51.512;7.504;2023-04-24T01:22:10;10.40;99.90
5415;DHT22;2730;51.512;7.504;2023-04-24T01:24:37;10.30;99.90
5415;DHT22;2730;51.512;7.504;2023-04-24T01:27:04;10.30;99.90
5415;DHT22;2730;51.512;7.504;2023-04-24T01:29:31;10.30;99.90
5415;DHT22;2730;51.512;7.504;2023-04-24T01:31:58;10.40;99.90
5415;DHT22;2730;51.512;7.504;2023-04-24T01:34:25;10.50;99.90
5415;DHT22;2730;51.512;7.504;2023-04-24T01:36:52;10.60;99.90
5415;DHT22;2730;51.512;7.504;2023-04-24T01:39:21;10.70;99.90
5415;DHT22;2730;51.512;7.504;2023-04-24T01:41:48;10.70;99.90
5415;DHT22;2730;51.512;7.504;2023-04-24T01:44:16;10.70;99.90
5415;DHT22;2730;51.512;7.504;2023-04-24T01:46:43;10.70;99.90
5415;DHT22;2730;51.512;7.504;2023-04-24T01:49:10;10.80;99.90
5415;DHT22;2730;51.512;7.504;2023-04-24T01:51:37;10.80;99.90
5415;DHT22;2730;51.512;7.504;2023-04-24T01:54:04;10.90;99.90
5415;DHT22;2730;51.512;7.504;2023-04-24T01:56:33;10.90;99.90
5415;DHT22;2730;51.512;7.504;2023-04-24T01:59:02;10.90;99.90
5415;DHT22;2730;51.512;7.504;2023-04-24T02:01:33;10.90;99.90
5415;DHT22;2730;51.512;7.504;2023-04-24T02:04:00;10.90;99.90
5415;DHT22;2730;51.512;7.504;2023-04-24T02:06:27;10.80;99.90
5415;DHT22;2730;51.512;7.504;2023-04-24T02:08:54;10.80;99.90
5415;DHT22;2730;51.512;7.504;2023-04-24T02:11:20;10.70;99.90
5415;DHT22;2730;51.512;7.504;2023-04-24T02:13:48;10.60;99.90
5415;DHT22;2730;51.512;7.504;2023-04-24T02:16:16;10.70;99.90
5415;DHT22;2730;51.512;7.504;2023-04-24T02:18:42;10.70;99.90
5415;DHT22;2730;51.512;7.504;2023-04-24T02:21:09;10.70;99.90
5415;DHT22;2730;51.512;7.504;2023-04-24T02:23:36;10.80;99.90
5415;DHT22;2730;51.512;7.504;2023-04-24T02:26:03;10.70;99.90
5415;DHT22;2730;51.512;7.504;2023-04-24T02:28:29;10.80;99.90
5415;DHT22;2730;51.512;7.504;2023-04-24T02:30:58;10.80;99.90
5415;DHT22;2730;51.512;7.504;2023-04-24T02:33:25;10.70;99.90
5415;DHT22;2730;51.512;7.504;2023-04-24T02:35:52;10.70;99.90
5415;DHT22;2730;51.512;7.504;2023-04-24T02:38:18;10.60;99.90
5415;DHT22;2730;51.512;7.504;2023-04-24T02:40:45;10.60;99.90
5415;DHT22;2730;51.512;7.504;2023-04-24T02:43:12;10.50;99.90
5415;DHT22;2730;51.512;7.504;2023-04-24T02:45:39;10.40;99.90
5415;DHT22;2730;51.512;7.504;2023-04-24T02:48:07;10.40;99.90
5415;DHT22;2730;51.512;7.504;2023-04-24T02:50:34;10.40;99.90
5415;DHT22;2730;51.512;7.504;2023-04-24T02:53:00;10.30;99.90
5415;DHT22;2730;51.512;7.504;2023-04-24T02:55:27;10.30;99.90
5415;DHT22;2730;51.512;7.504;2023-04-24T02:57:54;10.20;99.90
5415;DHT22;2730;51.512;7.504;2023-04-24T03:00:21;10.20;99.90
5415;DHT22;2730;51.512;7.504;2023-04-24T03:02:48;10.10;99.90
5415;DHT22;2730;51.512;7.504;2023-04-24T03:05:16;10.00;99.90
5415;DHT22;2730;51.512;7.504;2023-04-24T03:07:43;9.90;99.90
5415;DHT22;2730;51.512;7.504;2023-04-24T03:10:11;9.90;99.90
5415;DHT22;2730;51.512;7.504;2023-04-24T03:12:37;9.80;99.90
5415;DHT22;2730;51.512;7.504;2023-04-24T03:15:05;9.70;99.90
5415;DHT22;2730;51.512;7.504;2023-04-24T03:17:32;9.70;99.90
5415;DHT22;2730;51.512;7.504;2023-04-24T03:19:58;9.70;99.90
5415;DHT22;2730;51.512;7.504;2023-04-24T03:22:27;9.60;99.90
5415;DHT22;2730;51.512;7.504;2023-04-24T03:24:53;9.70;99.90
5415;DHT22;2730;51.512;7.504;2023-04-24T03:27:22;9.60;99.90
5415;DHT22;2730;51.512;7.504;2023-04-24T03:29:49;9.60;99.90
5415;DHT22;2730;51.512;7.504;2023-04-24T03:32:19;9.70;99.90
5415;DHT22;2730;51.512;7.504;2023-04-24T03:34:46;9.70;99.90
5415;DHT22;2730;51.512;7.504;2023-04-24T03:37:12;9.80;99.90
5415;DHT22;2730;51.512;7.504;2023-04-24T03:39:40;9.80;99.90
5415;DHT22;2730;51.512;7.504;2023-04-24T03:42:07;9.70;99.90
5415;DHT22;2730;51.512;7.504;2023-04-24T03:44:34;9.70;99.90
5415;DHT22;2730;51.512;7.504;2023-04-24T03:47:01;9.70;99.90
5415;DHT22;2730;51.512;7.504;2023-04-24T03:49:28;9.80;99.90
5415;DHT22;2730;51.512;7.504;2023-04-24T03:51:55;9.80;99.90
5415;DHT22;2730;51.512;7.504;2023-04-24T03:54:21;9.80;99.90
5415;DHT22;2730;51.512;7.504;2023-04-24T03:56:49;9.80;99.90
5415;DHT22;2730;51.512;7.504;2023-04-24T03:59:16;9.80;99.90
5415;DHT22;2730;51.512;7.504;2023-04-24T04:01:43;9.80;99.90
5415;DHT22;2730;51.512;7.504;2023-04-24T04:04:11;9.90;99.90
5415;DHT22;2730;51.512;7.504;2023-04-24T04:06:38;9.90;99.90
5415;DHT22;2730;51.512;7.504;2023-04-24T04:09:04;9.90;99.90
5415;DHT22;2730;51.512;7.504;2023-04-24T04:11:32;9.90;99.90
5415;DHT22;2730;51.512;7.504;2023-04-24T04:14:00;10.00;99.90
5415;DHT22;2730;51.512;7.504;2023-04-24T04:16:27;10.00;99.90
5415;DHT22;2730;51.512;7.504;2023-04-24T04:18:54;9.90;99.90
5415;DHT22;2730;51.512;7.504;2023-04-24T04:21:21;9.90;99.90
5415;DHT22;2730;51.512;7.504;2023-04-24T04:23:48;10.00;99.90
5415;DHT22;2730;51.512;7.504;2023-04-24T04:26:14;10.00;99.90
5415;DHT22;2730;51.512;7.504;2023-04-24T04:28:41;10.10;99.90
5415;DHT22;2730;51.512;7.504;2023-04-24T04:31:11;10.10;99.90
5415;DHT22;2730;51.512;7.504;2023-04-24T04:33:38;10.00;99.90
5415;DHT22;2730;51.512;7.504;2023-04-24T04:36:05;10.00;99.90
5415;DHT22;2730;51.512;7.504;2023-04-24T04:38:32;10.00;99.90
5415;DHT22;2730;51.512;7.504;2023-04-24T04:41:00;10.00;99.90
5415;DHT22;2730;51.512;7.504;2023-04-24T04:43:27;10.00;99.90
5415;DHT22;2730;51.512;7.504;2023-04-24T04:45:54;10.00;99.90
5415;DHT22;2730;51.512;7.504;2023-04-24T04:48:22;10.00;99.90
5415;DHT22;2730;51.512;7.504;2023-04-24T04:50:49;10.00;99.90
5415;DHT22;2730;51.512;7.504;2023-04-24T04:53:16;10.00;99.90
5415;DHT22;2730;51.512;7.504;2023-04-24T04:55:43;10.00;99.90
5415;DHT22;2730;51.512;7.504;2023-04-24T04:58:10;10.00;99.90
5415;DHT22;2730;51.512;7.504;2023-04-24T05:00:37;10.00;99.90
5415;DHT22;2730;51.512;7.504;2023-04-24T05:03:03;10.00;99.90
5415;DHT22;2730;51.512;7.504;2023-04-24T05:05:31;10.00;99.90
5415;DHT22;2730;51.512;7.504;2023-04-24T05:07:58;10.00;99.90
5415;DHT22;2730;51.512;7.504;2023-04-24T05:10:25;10.00;99.90
5415;DHT22;2730;51.512;7.504;2023-04-24T05:12:52;10.00;99.90
5415;DHT22;2730;51.512;7.504;2023-04-24T05:15:19;10.00;99.90
5415;DHT22;2730;51.512;7.504;2023-04-24T05:17:45;10.00;99.90
5415;DHT22;2730;51.512;7.504;2023-04-24T05:20:12;10.00;99.90
5415;DHT22;2730;51.512;7.504;2023-04-24T05:22:41;10.00;99.90
5415;DHT22;2730;51.512;7.504;2023-04-24T05:25:08;10.00;99.90
5415;DHT22;2730;51.512;7.504;2023-04-24T05:27:35;10.10;99.90
5415;DHT22;2730;51.512;7.504;2023-04-24T05:30:02;10.00;99.90
5415;DHT22;2730;51.512;7.504;2023-04-24T05:32:30;10.00;99.90
5415;DHT22;2730;51.512;7.504;2023-04-24T05:34:56;10.10;99.90
5415;DHT22;2730;51.512;7.504;2023-04-24T05:37:23;10.00;99.90
5415;DHT22;2730;51.512;7.504;2023-04-24T05:39:51;10.10;99.90
5415;DHT22;2730;51.512;7.504;2023-04-24T05:42:18;10.10;99.90
5415;DHT22;2730;51.512;7.504;2023-04-24T05:44:45;10.20;99.90
5415;DHT22;2730;51.512;7.504;2023-04-24T05:47:12;10.40;99.90
5415;DHT22;2730;51.512;7.504;2023-04-24T05:49:38;10.50;99.90
5415;DHT22;2730;51.512;7.504;2023-04-24T05:52:05;10.40;99.90
5415;DHT22;2730;51.512;7.504;2023-04-24T05:54:34;10.40;99.90
5415;DHT22;2730;51.512;7.504;2023-04-24T05:57:02;10.40;99.90
5415;DHT22;2730;51.512;7.504;2023-04-24T05:59:33;10.20;99.90
5415;DHT22;2730;51.512;7.504;2023-04-24T06:01:59;10.20;99.90
5415;DHT22;2730;51.512;7.504;2023-04-24T06:04:26;10.20;99.90
5415;DHT22;2730;51.512;7.504;2023-04-24T06:06:53;10.10;99.90
5415;DHT22;2730;51.512;7.504;2023-04-24T06:09:21;10.10;99.90
5415;DHT22;2730;51.512;7.504;2023-04-24T06:11:49;10.10;99.90
5415;DHT22;2730;51.512;7.504;2023-04-24T06:14:17;10.10;99.90
5415;DHT22;2730;51.512;7.504;2023-04-24T06:16:44;10.10;99.90
5415;DHT22;2730;51.512;7.504;2023-04-24T06:19:10;10.20;99.90
5415;DHT22;2730;51.512;7.504;2023-04-24T06:21:37;10.20;99.90
5415;DHT22;2730;51.512;7.504;2023-04-24T06:24:04;10.20;99.90
5415;DHT22;2730;51.512;7.504;2023-04-24T06:26:31;10.30;99.90
5415;DHT22;2730;51.512;7.504;2023-04-24T06:28:58;10.20;99.90
5415;DHT22;2730;51.512;7.504;2023-04-24T06:31:27;10.20;99.90
5415;DHT22;2730;51.512;7.504;2023-04-24T06:33:53;10.10;99.90
5415;DHT22;2730;51.512;7.504;2023-04-24T06:36:20;10.10;99.90
5415;DHT22;2730;51.512;7.504;2023-04-24T06:38:47;10.10;99.90
5415;DHT22;2730;51.512;7.504;2023-04-24T06:41:14;10.00;99.90
5415;DHT22;2730;51.512;7.504;2023-04-24T06:43:40;10.00;99.90
5415;DHT22;2730;51.512;7.504;2023-04-24T06:46:07;10.00;99.90
5415;DHT22;2730;51.512;7.504;2023-04-24T06:48:35;10.00;99.90
5415;DHT22;2730;51.512;7.504;2023-04-24T06:51:02;9.90;99.90
5415;DHT22;2730;51.512;7.504;2023-04-24T06:53:29;9.90;99.90
5415;DHT22;2730;51.512;7.504;2023-04-24T06:55:56;10.00;99.90
5415;DHT22;2730;51.512;7.504;2023-04-24T06:58:23;10.00;99.90
5415;DHT22;2730;51.512;7.504;2023-04-24T07:00:50;10.00;99.90
5415;DHT22;2730;51.512;7.504;2023-04-24T07:03:17;10.10;99.90
5415;DHT22;2730;51.512;7.504;2023-04-24T07:05:45;10.30;99.90
5415;DHT22;2730;51.512;7.504;2023-04-24T07:08:13;10.40;99.90
5415;DHT22;2730;51.512;7.504;2023-04-24T07:10:42;10.70;99.90
5415;DHT22;2730;51.512;7.504;2023-04-24T07:13:09;11.00;99.90
5415;DHT22;2730;51.512;7.504;2023-04-24T07:15:36;11.30;99.90
5415;DHT22;2730;51.512;7.504;2023-04-24T07:18:03;11.60;99.90
5415;DHT22;2730;51.512;7.504;2023-04-24T07:20:29;11.50;99.90
5415;DHT22;2730;51.512;7.504;2023-04-24T07:22:57;11.20;99.90
5415;DHT22;2730;51.512;7.504;2023-04-24T07:25:24;11.00;99.90
5415;DHT22;2730;51.512;7.504;2023-04-24T07:27:51;10.90;99.90
5415;DHT22;2730;51.512;7.504;2023-04-24T07:30:18;10.70;99.90
5415;DHT22;2730;51.512;7.504;2023-04-24T07:32:45;10.60;99.90
5415;DHT22;2730;51.512;7.504;2023-04-24T07:35:12;10.50;99.90
5415;DHT22;2730;51.512;7.504;2023-04-24T07:37:38;10.60;99.90
5415;DHT22;2730;51.512;7.504;2023-04-24T07:40:07;10.70;99.90
5415;DHT22;2730;51.512;7.504;2023-04-24T07:42:34;10.70;99.90
5415;DHT22;2730;51.512;7.504;2023-04-24T07:45:02;10.60;99.90
5415;DHT22;2730;51.512;7.504;2023-04-24T07:47:28;10.50;99.90
5415;DHT22;2730;51.512;7.504;2023-04-24T07:49:55;10.40;99.90
5415;DHT22;2730;51.512;7.504;2023-04-24T07:52:23;10.20;99.90
5415;DHT22;2730;51.512;7.504;2023-04-24T07:54:49;10.20;99.90
5415;DHT22;2730;51.512;7.504;2023-04-24T07:57:19;10.10;99.90
5415;DHT22;2730;51.512;7.504;2023-04-24T07:59:46;10.00;99.90
5415;DHT22;2730;51.512;7.504;2023-04-24T08:02:12;9.90;99.90
5415;DHT22;2730;51.512;7.504;2023-04-24T08:04:40;9.90;99.90
5415;DHT22;2730;51.512;7.504;2023-04-24T08:07:07;9.90;99.90
5415;DHT22;2730;51.512;7.504;2023-04-24T08:09:34;10.10;99.90
5415;DHT22;2730;51.512;7.504;2023-04-24T08:12:00;10.20;99.90
5415;DHT22;2730;51.512;7.504;2023-04-24T08:14:29;10.30;99.90
5415;DHT22;2730;51.512;7.504;2023-04-24T08:16:56;10.50;99.90
5415;DHT22;2730;51.512;7.504;2023-04-24T08:19:24;10.40;99.90
5415;DHT22;2730;51.512;7.504;2023-04-24T08:21:51;10.50;99.90
5415;DHT22;2730;51.512;7.504;2023-04-24T08:24:18;10.50;99.90
5415;DHT22;2730;51.512;7.504;2023-04-24T08:26:45;10.60;99.90
5415;DHT22;2730;51.512;7.504;2023-04-24T08:29:15;10.30;99.90
5415;DHT22;2730;51.512;7.504;2023-04-24T08:31:43;10.10;99.90
5415;DHT22;2730;51.512;7.504;2023-04-24T08:34:10;9.80;99.90
5415;DHT22;2730;51.512;7.504;2023-04-24T08:36:37;9.70;99.90
5415;DHT22;2730;51.512;7.504;2023-04-24T08:39:06;9.70;99.90
5415;DHT22;2730;51.512;7.504;2023-04-24T08:41:34;9.60;99.90
5415;DHT22;2730;51.512;7.504;2023-04-24T08:44:02;9.60;99.90
5415;DHT22;2730;51.512;7.504;2023-04-24T08:46:30;9.70;99.90
5415;DHT22;2730;51.512;7.504;2023-04-24T08:48:58;9.80;99.90
5415;DHT22;2730;51.512;7.504;2023-04-24T08:51:26;9.80;99.90
5415;DHT22;2730;51.512;7.504;2023-04-24T08:53:54;9.70;99.90
5415;DHT22;2730;51.512;7.504;2023-04-24T08:56:22;9.60;99.90
5415;DHT22;2730;51.512;7.504;2023-04-24T08:58:50;9.50;99.90
5415;DHT22;2730;51.512;7.504;2023-04-24T09:01:18;9.30;99.90
5415;DHT22;2730;51.512;7.504;2023-04-24T09:03:47;9.20;99.90
5415;DHT22;2730;51.512;7.504;2023-04-24T09:06:17;9.20;99.90
5415;DHT22;2730;51.512;7.504;2023-04-24T09:08:46;9.10;99.90
5415;DHT22;2730;51.512;7.504;2023-04-24T09:11:13;9.00;99.90
5415;DHT22;2730;51.512;7.504;2023-04-24T09:13:40;8.90;99.90
5415;DHT22;2730;51.512;7.504;2023-04-24T09:16:07;8.90;99.90
5415;DHT22;2730;51.512;7.504;2023-04-24T09:18:34;8.80;99.90
5415;DHT22;2730;51.512;7.504;2023-04-24T09:21:02;8.90;99.90
5415;DHT22;2730;51.512;7.504;2023-04-24T09:23:31;8.80;99.90
5415;DHT22;2730;51.512;7.504;2023-04-24T09:25:59;8.80;99.90
5415;DHT22;2730;51.512;7.504;2023-04-24T09:28:28;8.90;99.90
5415;DHT22;2730;51.512;7.504;2023-04-24T09:31:03;8.90;99.90
5415;DHT22;2730;51.512;7.504;2023-04-24T09:33:29;8.80;99.90
5415;DHT22;2730;51.512;7.504;2023-04-24T09:35:56;8.80;99.90
5415;DHT22;2730;51.512;7.504;2023-04-24T09:38:32;8.90;99.90
5415;DHT22;2730;51.512;7.504;2023-04-24T09:41:01;8.90;99.90
5415;DHT22;2730;51.512;7.504;2023-04-24T09:43:29;9.00;99.90
5415;DHT22;2730;51.512;7.504;2023-04-24T09:45:56;9.00;99.90
5415;DHT22;2730;51.512;7.504;2023-04-24T09:48:31;9.00;99.90
5415;DHT22;2730;51.512;7.504;2023-04-24T09:50:58;9.00;99.90
5415;DHT22;2730;51.512;7.504;2023-04-24T09:53:26;9.00;99.90
5415;DHT22;2730;51.512;7.504;2023-04-24T09:55:55;9.00;99.90
5415;DHT22;2730;51.512;7.504;2023-04-24T09:58:25;9.00;99.90
5415;DHT22;2730;51.512;7.504;2023-04-24T10:00:54;9.00;99.90
5415;DHT22;2730;51.512;7.504;2023-04-24T10:03:24;9.20;99.90
5415;DHT22;2730;51.512;7.504;2023-04-24T10:05:51;9.30;99.90
5415;DHT22;2730;51.512;7.504;2023-04-24T10:08:19;9.20;99.90
5415;DHT22;2730;51.512;7.504;2023-04-24T10:10:47;9.30;99.90
5415;DHT22;2730;51.512;7.504;2023-04-24T10:13:15;9.40;99.90
5415;DHT22;2730;51.512;7.504;2023-04-24T10:15:42;9.40;99.90
5415;DHT22;2730;51.512;7.504;2023-04-24T10:18:09;9.50;99.90
5415;DHT22;2730;51.512;7.504;2023-04-24T10:20:38;9.40;99.90
5415;DHT22;2730;51.512;7.504;2023-04-24T10:23:06;9.20;99.90
5415;DHT22;2730;51.512;7.504;2023-04-24T10:25:35;9.10;99.90
5415;DHT22;2730;51.512;7.504;2023-04-24T10:28:03;8.90;99.90
5415;DHT22;2730;51.512;7.504;2023-04-24T10:30:33;8.90;99.90
5415;DHT22;2730;51.512;7.504;2023-04-24T10:33:01;8.80;99.90
5415;DHT22;2730;51.512;7.504;2023-04-24T10:35:31;8.80;99.90
5415;DHT22;2730;51.512;7.504;2023-04-24T10:38:00;8.70;99.90
5415;DHT22;2730;51.512;7.504;2023-04-24T10:40:30;8.70;99.90
5415;DHT22;2730;51.512;7.504;2023-04-24T10:42:57;8.60;99.90
5415;DHT22;2730;51.512;7.504;2023-04-24T10:45:24;8.60;99.90
5415;DHT22;2730;51.512;7.504;2023-04-24T10:47:56;8.60;99.90
5415;DHT22;2730;51.512;7.504;2023-04-24T10:50:25;8.70;99.90
5415;DHT22;2730;51.512;7.504;2023-04-24T10:52:51;8.70;99.90
5415;DHT22;2730;51.512;7.504;2023-04-24T10:55:41;8.60;99.90
5415;DHT22;2730;51.512;7.504;2023-04-24T10:58:09;8.60;99.90
5415;DHT22;2730;51.512;7.504;2023-04-24T11:00:37;8.60;99.90
5415;DHT22;2730;51.512;7.504;2023-04-24T11:03:06;8.70;99.90
5415;DHT22;2730;51.512;7.504;2023-04-24T11:05:55;8.90;99.90
5415;DHT22;2730;51.512;7.504;2023-04-24T11:08:24;9.00;99.90
5415;DHT22;2730;51.512;7.504;2023-04-24T11:11:02;9.00;99.90
5415;DHT22;2730;51.512;7.504;2023-04-24T11:16:42;9.00;99.90
5415;DHT22;2730;51.512;7.504;2023-04-24T11:19:20;9.00;99.90
5415;DHT22;2730;51.512;7.504;2023-04-24T11:21:54;9.00;99.90
5415;DHT22;2730;51.512;7.504;2023-04-24T11:24:25;9.00;99.90
5415;DHT22;2730;51.512;7.504;2023-04-24T11:26:53;9.00;99.90
5415;DHT22;2730;51.512;7.504;2023-04-24T11:29:21;8.90;99.90
5415;DHT22;2730;51.512;7.504;2023-04-24T11:31:48;9.00;99.90
5415;DHT22;2730;51.512;7.504;2023-04-24T11:34:18;9.00;99.90
5415;DHT22;2730;51.512;7.504;2023-04-24T11:36:45;9.20;99.90
5415;DHT22;2730;51.512;7.504;2023-04-24T11:39:13;9.30;99.90
5415;DHT22;2730;51.512;7.504;2023-04-24T11:41:40;9.10;99.90
5415;DHT22;2730;51.512;7.504;2023-04-24T11:44:09;9.00;99.90
5415;DHT22;2730;51.512;7.504;2023-04-24T11:46:36;9.10;99.90
5415;DHT22;2730;51.512;7.504;2023-04-24T11:49:05;9.20;99.90
5415;DHT22;2730;51.512;7.504;2023-04-24T11:51:34;9.40;99.90
5415;DHT22;2730;51.512;7.504;2023-04-24T11:54:01;9.40;99.90
5415;DHT22;2730;51.512;7.504;2023-04-24T11:56:28;9.40;99.90
5415;DHT22;2730;51.512;7.504;2023-04-24T11:58:55;9.40;99.90
5415;DHT22;2730;51.512;7.504;2023-04-24T12:01:22;9.50;99.90
5415;DHT22;2730;51.512;7.504;2023-04-24T12:03:49;9.70;99.90
5415;DHT22;2730;51.512;7.504;2023-04-24T12:06:17;9.70;99.90
5415;DHT22;2730;51.512;7.504;2023-04-24T12:08:47;9.60;99.90
5415;DHT22;2730;51.512;7.504;2023-04-24T12:11:16;9.60;99.90
5415;DHT22;2730;51.512;7.504;2023-04-24T12:13:44;9.70;99.90
5415;DHT22;2730;51.512;7.504;2023-04-24T12:16:12;9.60;99.90
5415;DHT22;2730;51.512;7.504;2023-04-24T12:18:43;9.50;99.90
5415;DHT22;2730;51.512;7.504;2023-04-24T12:21:21;9.50;99.90
5415;DHT22;2730;51.512;7.504;2023-04-24T12:23:49;9.50;99.90
5415;DHT22;2730;51.512;7.504;2023-04-24T12:26:18;9.40;99.90
5415;DHT22;2730;51.512;7.504;2023-04-24T12:28:47;9.40;99.90
5415;DHT22;2730;51.512;7.504;2023-04-24T12:31:15;9.20;99.90
5415;DHT22;2730;51.512;7.504;2023-04-24T12:33:42;9.20;99.90
5415;DHT22;2730;51.512;7.504;2023-04-24T12:36:10;9.20;99.90
5415;DHT22;2730;51.512;7.504;2023-04-24T12:38:38;9.30;99.90
5415;DHT22;2730;51.512;7.504;2023-04-24T12:41:09;9.50;99.90
5415;DHT22;2730;51.512;7.504;2023-04-24T12:43:36;9.80;99.90
5415;DHT22;2730;51.512;7.504;2023-04-24T12:46:04;10.20;99.90
5415;DHT22;2730;51.512;7.504;2023-04-24T12:48:31;10.50;99.90
5415;DHT22;2730;51.512;7.504;2023-04-24T12:50:59;10.90;99.90
5415;DHT22;2730;51.512;7.504;2023-04-24T12:53:27;11.10;99.90
5415;DHT22;2730;51.512;7.504;2023-04-24T12:55:55;11.10;99.90
5415;DHT22;2730;51.512;7.504;2023-04-24T12:58:24;11.10;99.90
5415;DHT22;2730;51.512;7.504;2023-04-24T13:00:51;11.10;99.90
5415;DHT22;2730;51.512;7.504;2023-04-24T13:03:18;10.90;99.90
5415;DHT22;2730;51.512;7.504;2023-04-24T13:05:45;10.80;99.90
5415;DHT22;2730;51.512;7.504;2023-04-24T13:08:12;10.60;99.90
5415;DHT22;2730;51.512;7.504;2023-04-24T13:10:39;10.50;99.90
5415;DHT22;2730;51.512;7.504;2023-04-24T13:13:06;10.20;99.90
5415;DHT22;2730;51.512;7.504;2023-04-24T13:15:35;10.00;99.90
5415;DHT22;2730;51.512;7.504;2023-04-24T13:18:02;10.00;99.90
5415;DHT22;2730;51.512;7.504;2023-04-24T13:20:28;10.00;99.90
5415;DHT22;2730;51.512;7.504;2023-04-24T13:22:55;9.90;99.90
5415;DHT22;2730;51.512;7.504;2023-04-24T13:25:22;10.00;99.90
5415;DHT22;2730;51.512;7.504;2023-04-24T13:27:50;10.10;99.90
5415;DHT22;2730;51.512;7.504;2023-04-24T13:30:17;10.30;99.90
5415;DHT22;2730;51.512;7.504;2023-04-24T13:32:45;10.60;99.90
5415;DHT22;2730;51.512;7.504;2023-04-24T13:35:12;10.70;99.90
5415;DHT22;2730;51.512;7.504;2023-04-24T13:37:38;10.70;99.90
5415;DHT22;2730;51.512;7.504;2023-04-24T13:40:06;10.80;99.90
5415;DHT22;2730;51.512;7.504;2023-04-24T13:42:33;10.60;99.90
5415;DHT22;2730;51.512;7.504;2023-04-24T13:45:00;10.50;99.90
5415;DHT22;2730;51.512;7.504;2023-04-24T13:47:27;10.40;99.90
5415;DHT22;2730;51.512;7.504;2023-04-24T13:49:55;10.30;99.90
5415;DHT22;2730;51.512;7.504;2023-04-24T13:52:22;10.30;99.90
5415;DHT22;2730;51.512;7.504;2023-04-24T13:54:48;10.20;99.90
5415;DHT22;2730;51.512;7.504;2023-04-24T13:57:15;10.20;99.90
5415;DHT22;2730;51.512;7.504;2023-04-24T13:59:42;10.30;99.90
5415;DHT22;2730;51.512;7.504;2023-04-24T14:02:10;10.30;99.90
5415;DHT22;2730;51.512;7.504;2023-04-24T14:04:37;10.20;99.90
5415;DHT22;2730;51.512;7.504;2023-04-24T14:07:05;10.20;99.90
5415;DHT22;2730;51.512;7.504;2023-04-24T14:09:33;10.30;99.90
5415;DHT22;2730;51.512;7.504;2023-04-24T14:12:00;10.20;99.90
5415;DHT22;2730;51.512;7.504;2023-04-24T14:14:27;10.00;99.90
5415;DHT22;2730;51.512;7.504;2023-04-24T14:16:55;10.10;99.90
5415;DHT22;2730;51.512;7.504;2023-04-24T14:19:22;10.30;99.90
5415;DHT22;2730;51.512;7.504;2023-04-24T14:21:49;10.20;99.90
5415;DHT22;2730;51.512;7.504;2023-04-24T14:24:17;10.20;99.90
5415;DHT22;2730;51.512;7.504;2023-04-24T14:26:44;10.20;99.90
5415;DHT22;2730;51.512;7.504;2023-04-24T14:29:10;10.40;99.90
5415;DHT22;2730;51.512;7.504;2023-04-24T14:31:37;10.70;99.90
5415;DHT22;2730;51.512;7.504;2023-04-24T14:34:04;11.00;99.90
5415;DHT22;2730;51.512;7.504;2023-04-24T14:36:31;11.10;99.90
5415;DHT22;2730;51.512;7.504;2023-04-24T14:38:57;11.10;99.90
5415;DHT22;2730;51.512;7.504;2023-04-24T14:41:26;11.10;99.90
5415;DHT22;2730;51.512;7.504;2023-04-24T14:43:52;11.20;99.90
5415;DHT22;2730;51.512;7.504;2023-04-24T14:46:20;11.30;99.90
5415;DHT22;2730;51.512;7.504;2023-04-24T14:48:47;11.30;99.90
5415;DHT22;2730;51.512;7.504;2023-04-24T14:51:13;11.50;99.90
5415;DHT22;2730;51.512;7.504;2023-04-24T14:53:40;11.50;99.90
5415;DHT22;2730;51.512;7.504;2023-04-24T14:56:07;11.60;99.90
5415;DHT22;2730;51.512;7.504;2023-04-24T14:58:35;11.20;99.90
5415;DHT22;2730;51.512;7.504;2023-04-24T15:01:02;11.10;99.90
5415;DHT22;2730;51.512;7.504;2023-04-24T15:03:29;10.90;99.90
5415;DHT22;2730;51.512;7.504;2023-04-24T15:05:56;10.80;99.90
5415;DHT22;2730;51.512;7.504;2023-04-24T15:08:23;10.60;99.90
5415;DHT22;2730;51.512;7.504;2023-04-24T15:10:50;10.60;99.90
5415;DHT22;2730;51.512;7.504;2023-04-24T15:13:17;10.60;99.90
5415;DHT22;2730;51.512;7.504;2023-04-24T15:15:46;10.50;99.90
5415;DHT22;2730;51.512;7.504;2023-04-24T15:18:13;10.30;99.90
5415;DHT22;2730;51.512;7.504;2023-04-24T15:20:39;10.20;99.90
5415;DHT22;2730;51.512;7.504;2023-04-24T15:23:08;10.00;99.90
5415;DHT22;2730;51.512;7.504;2023-04-24T15:25:35;9.70;99.90
5415;DHT22;2730;51.512;7.504;2023-04-24T15:28:01;9.40;99.90
5415;DHT22;2730;51.512;7.504;2023-04-24T15:30:29;9.30;99.90
5415;DHT22;2730;51.512;7.504;2023-04-24T15:32:57;9.30;99.90
5415;DHT22;2730;51.512;7.504;2023-04-24T15:35:24;9.50;99.90
5415;DHT22;2730;51.512;7.504;2023-04-24T15:37:51;9.50;99.90
5415;DHT22;2730;51.512;7.504;2023-04-24T15:40:17;9.60;99.90
5415;DHT22;2730;51.512;7.504;2023-04-24T15:42:45;9.60;99.90
5415;DHT22;2730;51.512;7.504;2023-04-24T15:45:12;9.60;99.90
5415;DHT22;2730;51.512;7.504;2023-04-24T15:47:39;9.80;99.90
5415;DHT22;2730;51.512;7.504;2023-04-24T15:50:07;10.00;99.90
5415;DHT22;2730;51.512;7.504;2023-04-24T15:52:35;10.20;99.90
5415;DHT22;2730;51.512;7.504;2023-04-24T15:55:03;10.30;99.90
5415;DHT22;2730;51.512;7.504;2023-04-24T15:57:30;10.40;99.90
5415;DHT22;2730;51.512;7.504;2023-04-24T15:59:57;10.40;99.90
5415;DHT22;2730;51.512;7.504;2023-04-24T16:02:25;10.30;99.90
5415;DHT22;2730;51.512;7.504;2023-04-24T16:04:51;10.30;99.90
5415;DHT22;2730;51.512;7.504;2023-04-24T16:07:20;10.30;99.90
5415;DHT22;2730;51.512;7.504;2023-04-24T16:09:47;10.40;99.90
5415;DHT22;2730;51.512;7.504;2023-04-24T16:12:13;10.50;99.90